createdAt,value
2018-11-22T12:17:09.921Z,77.70
2018-11-22T12:19:38.408Z,77.41
2018-11-22T12:22:06.895Z,76.99
2018-11-22T12:24:35.607Z,76.42
2018-11-22T12:27:04.233Z,76.33
2018-11-22T12:29:32.725Z,77.54
2018-11-22T12:32:06.410Z,76.63
2018-11-22T12:34:40.247Z,76.83
2018-11-22T12:37:16.753Z,76.42
2018-11-22T12:39:45.317Z,76.20
2018-11-22T12:42:13.773Z,76.41
2018-11-22T12:44:42.231Z,75.71
2018-11-22T12:47:10.731Z,75.67
2018-11-22T12:49:39.177Z,74.93
2018-11-22T12:52:07.744Z,74.77
2018-11-22T12:54:37.331Z,74.45
2018-11-22T12:57:06.057Z,74.30
2018-11-22T12:59:34.515Z,74.49
2018-11-22T13:02:03.122Z,73.99
2018-11-22T13:04:31.626Z,74.25
2018-11-22T13:07:00.117Z,74.12
2018-11-22T13:09:28.577Z,73.32
2018-11-22T13:11:57.062Z,73.21
2018-11-22T13:14:25.527Z,73.16
2018-11-22T13:16:54.057Z,72.98
2018-11-22T13:19:22.520Z,72.37
2018-11-22T13:21:51.251Z,72.75
2018-11-22T13:24:19.756Z,72.31
2018-11-22T13:26:48.278Z,72.08
2018-11-22T13:29:17.741Z,71.94
2018-11-22T13:31:46.442Z,72.55
2018-11-22T13:34:15.110Z,72.57
2018-11-22T13:36:43.603Z,72.34
2018-11-22T13:39:12.380Z,72.46
2018-11-22T13:41:40.873Z,72.23
2018-11-22T13:44:09.386Z,72.37
2018-11-22T13:46:37.875Z,72.25
2018-11-22T13:49:06.823Z,72.57
2018-11-22T13:51:35.441Z,71.83
2018-11-22T13:54:03.948Z,71.96
2018-11-22T13:56:32.481Z,71.96
2018-11-22T13:59:01.018Z,72.59
2018-11-22T14:01:30.300Z,73.86
2018-11-22T14:03:59.159Z,73.71
2018-11-22T14:06:27.843Z,74.70
2018-11-22T14:08:56.594Z,75.23
2018-11-22T14:11:25.085Z,75.57
2018-11-22T14:13:53.658Z,75.94
2018-11-22T14:16:22.232Z,76.01
2018-11-22T14:18:50.811Z,75.82
2018-11-22T14:21:19.527Z,76.02
2018-11-22T14:23:48.205Z,77.00
2018-11-22T14:26:16.954Z,76.86
2018-11-22T14:28:45.463Z,76.15
2018-11-22T14:31:13.934Z,75.93
2018-11-22T14:33:44.375Z,75.94
2018-11-22T14:36:13.082Z,75.36
2018-11-22T14:38:41.590Z,75.64
2018-11-22T14:41:10.137Z,75.26
2018-11-22T14:43:38.702Z,74.89
2018-11-22T14:46:07.174Z,74.49
2018-11-22T14:48:35.701Z,75.77
2018-11-22T14:51:43.235Z,75.51
2018-11-22T14:54:11.730Z,75.86
2018-11-22T14:56:40.227Z,76.40
2018-11-22T14:59:08.764Z,76.07
2018-11-22T15:01:37.450Z,76.74
2018-11-22T15:04:06.083Z,76.67
2018-11-22T15:06:34.590Z,76.72
2018-11-22T15:09:03.212Z,77.31
2018-11-22T15:11:32.761Z,77.62
2018-11-22T15:14:01.234Z,77.79
2018-11-22T15:16:29.751Z,78.03
2018-11-22T15:18:58.475Z,77.04
2018-11-22T15:21:26.989Z,78.23
2018-11-22T15:23:55.480Z,77.58
2018-11-22T15:26:23.922Z,77.69
2018-11-22T15:28:52.493Z,78.19
2018-11-22T15:31:20.971Z,77.72
2018-11-22T15:33:49.492Z,77.52
2018-11-22T15:36:18.032Z,77.24
2018-11-22T15:38:46.583Z,77.62
2018-11-22T15:41:15.067Z,77.51
2018-11-22T15:43:43.579Z,77.58
2018-11-22T15:46:12.062Z,77.22
2018-11-22T15:48:40.663Z,76.90
2018-11-22T15:51:09.164Z,77.40
2018-11-22T15:53:38.536Z,76.89
2018-11-22T15:56:07.025Z,77.40
2018-11-22T15:58:35.555Z,76.98
2018-11-22T16:01:04.035Z,77.49
2018-11-22T16:03:32.533Z,77.84
2018-11-22T16:06:01.026Z,76.87
2018-11-22T16:08:29.558Z,77.06
2018-11-22T16:10:58.069Z,77.07
2018-11-22T16:13:26.608Z,76.31
2018-11-22T16:15:55.527Z,77.23
2018-11-22T16:18:24.103Z,77.65
2018-11-22T16:20:52.690Z,78.42
2018-11-22T16:23:21.204Z,78.17
2018-11-22T16:25:49.669Z,77.53
2018-11-22T16:28:18.223Z,78.13
2018-11-22T16:30:46.870Z,78.00
2018-11-22T16:33:16.130Z,77.57
2018-11-22T16:35:44.994Z,77.42
2018-11-22T16:38:13.562Z,77.49
2018-11-22T16:40:42.101Z,78.10
2018-11-22T16:43:10.725Z,78.27
2018-11-22T16:45:39.702Z,78.51
2018-11-22T16:48:09.898Z,78.20
2018-11-22T16:50:39.567Z,78.36
2018-11-22T16:53:08.133Z,78.61
2018-11-22T16:55:36.638Z,78.19
2018-11-22T16:58:06.587Z,78.97
2018-11-22T17:00:38.204Z,78.99
2018-11-22T17:03:08.849Z,79.17
2018-11-22T17:05:38.342Z,78.58
2018-11-22T17:08:09.007Z,79.17
2018-11-22T17:10:38.231Z,78.72
2018-11-22T17:13:07.231Z,79.53
2018-11-22T17:15:37.270Z,79.65
2018-11-22T17:19:30.490Z,79.10
2018-11-22T17:21:59.103Z,80.26
2018-11-22T17:24:27.611Z,80.27
2018-11-22T17:26:56.230Z,80.65
2018-11-22T17:29:25.434Z,80.65
2018-11-22T17:31:54.031Z,80.10
2018-11-22T17:34:22.638Z,80.13
2018-11-22T17:36:51.415Z,80.36
2018-11-22T17:39:20.620Z,80.53
2018-11-22T17:41:56.128Z,80.51
2018-11-22T17:44:24.708Z,80.44
2018-11-22T17:46:53.445Z,80.49
2018-11-22T17:49:22.094Z,81.43
2018-11-22T17:51:50.649Z,80.72
2018-11-22T17:54:19.291Z,81.18
2018-11-22T17:56:47.754Z,80.97
2018-11-22T17:59:16.367Z,80.95
2018-11-22T18:01:45.180Z,80.92
2018-11-22T18:04:14.210Z,81.02
2018-11-22T18:06:42.776Z,80.72
2018-11-22T18:09:11.953Z,80.44
2018-11-22T18:11:41.125Z,79.66
2018-11-22T18:14:09.871Z,80.19
2018-11-22T18:16:38.743Z,80.69
2018-11-22T18:19:07.338Z,80.35
2018-11-22T18:21:36.770Z,82.09
2018-11-22T18:24:05.537Z,82.16
2018-11-22T18:26:34.127Z,81.25
2018-11-22T18:29:03.035Z,81.56
2018-11-22T18:31:31.604Z,81.93
2018-11-22T18:34:00.450Z,81.09
2018-11-22T18:36:29.006Z,81.34
2018-11-22T18:38:57.591Z,81.25
2018-11-22T18:41:26.114Z,81.26
2018-11-22T18:43:54.700Z,80.41
2018-11-22T18:46:23.218Z,80.39
2018-11-22T18:48:51.886Z,81.00
2018-11-22T18:51:20.476Z,80.74
2018-11-22T18:53:49.202Z,81.41
2018-11-22T18:56:17.870Z,81.12
2018-11-22T18:58:46.427Z,80.50
2018-11-22T19:01:15.117Z,80.52
2018-11-22T19:03:43.742Z,81.03
2018-11-22T19:06:12.598Z,80.87
2018-11-22T19:08:41.159Z,80.85
2018-11-22T19:11:09.844Z,81.78
2018-11-22T19:13:38.390Z,81.04
2018-11-22T19:16:07.121Z,81.73
2018-11-22T19:18:35.647Z,81.87
2018-11-22T19:21:04.221Z,82.39
2018-11-22T19:23:40.110Z,82.17
2018-11-22T19:26:08.964Z,82.97
2018-11-22T19:28:37.784Z,82.77
2018-11-22T19:31:06.903Z,82.74
2018-11-22T19:33:35.435Z,82.70
2018-11-22T19:36:05.028Z,83.23
2018-11-22T19:38:33.646Z,83.66
2018-11-22T19:41:05.233Z,83.27
2018-11-22T19:43:33.812Z,83.95
2018-11-22T19:46:02.398Z,84.50
2018-11-22T19:48:30.991Z,84.14
2018-11-22T19:51:05.638Z,83.66
2018-11-22T19:53:28.199Z,83.21
2018-11-22T19:55:56.767Z,83.01
2018-11-22T19:58:26.885Z,82.94
2018-11-22T20:00:55.437Z,82.18
2018-11-22T20:03:24.047Z,82.04
2018-11-22T20:05:52.591Z,81.70
2018-11-22T20:08:21.134Z,81.76
2018-11-22T20:10:50.102Z,82.04
2018-11-22T20:13:18.667Z,81.87
2018-11-22T20:15:47.165Z,81.71
2018-11-22T20:18:15.725Z,81.51
2018-11-22T20:20:49.892Z,81.78
2018-11-22T20:23:17.623Z,81.94
2018-11-22T20:25:43.116Z,81.81
2018-11-22T20:28:11.635Z,81.11
2018-11-22T20:30:41.823Z,81.28
2018-11-22T20:33:10.298Z,81.87
2018-11-22T20:35:38.892Z,81.58
2018-11-22T20:38:07.559Z,81.79
2018-11-22T20:40:36.087Z,81.12
2018-11-22T20:43:04.970Z,82.30
2018-11-22T20:45:36.909Z,83.31
2018-11-22T20:48:04.430Z,83.74
2018-11-22T20:50:33.558Z,83.44
2018-11-22T20:53:02.059Z,83.54
2018-11-22T20:55:32.047Z,83.40
2018-11-22T20:58:02.278Z,82.87
2018-11-22T21:00:32.504Z,82.72
2018-11-22T21:03:01.018Z,82.30
2018-11-22T21:05:30.175Z,82.46
2018-11-22T21:07:58.667Z,82.42
2018-11-22T21:10:29.597Z,82.14
2018-11-22T21:12:58.112Z,81.94
2018-11-22T21:15:27.994Z,82.19
2018-11-22T21:17:59.961Z,81.90
2018-11-22T21:20:31.309Z,81.37
2018-11-22T21:22:59.810Z,81.90
2018-11-22T21:25:28.293Z,81.36
2018-11-22T21:27:56.895Z,81.49
2018-11-22T21:30:28.114Z,81.80
2018-11-22T21:32:59.127Z,81.10
2018-11-22T21:35:27.691Z,81.07
2018-11-22T21:37:57.031Z,81.11
2018-11-22T21:40:26.191Z,81.41
2018-11-22T21:42:54.738Z,81.17
2018-11-22T21:45:40.147Z,81.12
2018-11-22T21:48:08.715Z,80.87
2018-11-22T21:50:37.213Z,81.07
2018-11-22T21:53:05.817Z,81.44
2018-11-22T21:55:34.384Z,81.90
2018-11-22T21:58:03.775Z,82.01
2018-11-22T22:00:38.143Z,81.97
2018-11-22T22:03:08.183Z,83.04
2018-11-22T22:05:36.806Z,83.06
2018-11-22T22:08:07.317Z,82.69
2018-11-22T22:10:35.868Z,83.15
2018-11-22T22:13:04.646Z,83.13
2018-11-22T22:15:34.218Z,83.22
2018-11-22T22:18:02.745Z,82.62
2018-11-22T22:20:34.166Z,82.60
2018-11-22T22:23:02.769Z,82.21
2018-11-22T22:25:32.077Z,82.11
2018-11-22T22:28:01.069Z,82.68
2018-11-22T22:30:31.250Z,82.71
2018-11-22T22:33:01.288Z,83.13
2018-11-22T22:35:29.777Z,83.24
2018-11-22T22:37:58.295Z,83.78
2018-11-22T22:40:28.038Z,84.32
2018-11-22T22:42:57.366Z,83.67
2018-11-22T22:45:26.944Z,83.50
2018-11-22T22:47:55.526Z,83.41
2018-11-22T22:50:27.644Z,83.17
2018-11-22T22:52:57.286Z,83.53
2018-11-22T22:55:25.927Z,83.06
2018-11-22T22:57:54.502Z,83.00
2018-11-22T23:00:30.466Z,83.32
2018-11-22T23:03:02.451Z,83.67
2018-11-22T23:05:31.388Z,83.76
2018-11-22T23:07:59.912Z,84.70
2018-11-22T23:10:28.446Z,84.19
2018-11-22T23:12:59.625Z,84.12
2018-11-22T23:15:29.195Z,83.72
2018-11-22T23:17:57.733Z,83.45
2018-11-22T23:20:27.632Z,83.76
2018-11-22T23:22:56.725Z,83.69
2018-11-22T23:25:26.314Z,84.03
2018-11-22T23:27:54.803Z,84.01
2018-11-22T23:30:25.993Z,83.91
2018-11-22T23:33:01.908Z,84.34
2018-11-22T23:35:30.445Z,83.81
2018-11-22T23:37:58.924Z,83.43
2018-11-22T23:40:28.642Z,83.18
2018-11-22T23:42:57.247Z,83.53
2018-11-22T23:45:30.685Z,83.57
2018-11-22T23:47:59.190Z,84.33
2018-11-22T23:50:31.037Z,83.80
2018-11-22T23:53:00.667Z,83.64
2018-11-22T23:55:31.113Z,83.51
2018-11-22T23:57:59.623Z,83.51
